Sussex, Canada
Current Conditions -  °F | °C
As of 8:00 AM on Monday 22 Dec 2014 (Local Time) from CYSJ Reporting Station
Broken Clouds Broken Clouds  
Wind Chill: 17°   Ceiling: 3300
Heat Index: 23°   Visibility: 15mi
Dew Point: 21°   Wind: 5mph
Humidity: 93%   Direction: 30°NNE
Pressure: 30.44"   Gusts: NA
Location:  45.72°N, 65.52°W
Report Text: CYSJ 221200Z 03004KT 15SM BKN033 M05/M06 A3044 RMK SC5 SLP314
Loading
Personal Weather Stations






























Interactive Weather Map New forecast layout! Learn more

10-Day Weather Forecast

Advertisements
Track Severe Weather on mobile